sensor_id;sensor_type;location;lat;lon;timestamp;temperature;humidity
48264;DHT22;34086;51.076;13.722;2023-06-05T00:00:22;13.60;84.40
48264;DHT22;34086;51.076;13.722;2023-06-05T00:01:25;13.60;84.80
48264;DHT22;34086;51.076;13.722;2023-06-05T00:02:25;13.60;85.00
48264;DHT22;34086;51.076;13.722;2023-06-05T00:03:26;13.50;85.20
48264;DHT22;34086;51.076;13.722;2023-06-05T00:04:27;13.50;85.70
48264;DHT22;34086;51.076;13.722;2023-06-05T00:05:31;13.50;86.20
48264;DHT22;34086;51.076;13.722;2023-06-05T00:06:31;13.50;86.60
48264;DHT22;34086;51.076;13.722;2023-06-05T00:07:32;13.50;87.10
48264;DHT22;34086;51.076;13.722;2023-06-05T00:08:32;13.50;87.20
48264;DHT22;34086;51.076;13.722;2023-06-05T00:09:33;13.50;87.50
48264;DHT22;34086;51.076;13.722;2023-06-05T00:10:33;13.50;87.90
48264;DHT22;34086;51.076;13.722;2023-06-05T00:11:34;13.50;88.50
48264;DHT22;34086;51.076;13.722;2023-06-05T00:12:35;13.40;88.90
48264;DHT22;34086;51.076;13.722;2023-06-05T00:13:36;13.40;89.50
48264;DHT22;34086;51.076;13.722;2023-06-05T00:14:36;13.40;89.80
48264;DHT22;34086;51.076;13.722;2023-06-05T00:15:37;13.40;90.10
48264;DHT22;34086;51.076;13.722;2023-06-05T00:16:38;13.40;90.40
48264;DHT22;34086;51.076;13.722;2023-06-05T00:17:38;13.30;90.50
48264;DHT22;34086;51.076;13.722;2023-06-05T00:18:39;13.30;90.80
48264;DHT22;34086;51.076;13.722;2023-06-05T00:19:39;13.30;91.00
48264;DHT22;34086;51.076;13.722;2023-06-05T00:20:40;13.30;91.00
48264;DHT22;34086;51.076;13.722;2023-06-05T00:21:40;13.30;91.10
48264;DHT22;34086;51.076;13.722;2023-06-05T00:22:41;13.20;91.40
48264;DHT22;34086;51.076;13.722;2023-06-05T00:23:44;13.20;91.70
48264;DHT22;34086;51.076;13.722;2023-06-05T00:24:45;13.20;91.80
48264;DHT22;34086;51.076;13.722;2023-06-05T00:25:45;13.20;92.10
48264;DHT22;34086;51.076;13.722;2023-06-05T00:26:46;13.20;92.40
48264;DHT22;34086;51.076;13.722;2023-06-05T00:27:47;13.20;92.70
48264;DHT22;34086;51.076;13.722;2023-06-05T00:28:48;13.20;93.00
48264;DHT22;34086;51.076;13.722;2023-06-05T00:29:49;13.10;93.20
48264;DHT22;34086;51.076;13.722;2023-06-05T00:30:50;13.10;93.60
48264;DHT22;34086;51.076;13.722;2023-06-05T00:31:50;13.10;93.80
48264;DHT22;34086;51.076;13.722;2023-06-05T00:32:51;13.10;94.10
48264;DHT22;34086;51.076;13.722;2023-06-05T00:33:51;13.10;94.30
48264;DHT22;34086;51.076;13.722;2023-06-05T00:34:53;13.10;94.60
48264;DHT22;34086;51.076;13.722;2023-06-05T00:35:54;13.00;94.80
48264;DHT22;34086;51.076;13.722;2023-06-05T00:36:55;13.00;95.10
48264;DHT22;34086;51.076;13.722;2023-06-05T00:37:58;13.00;95.50
48264;DHT22;34086;51.076;13.722;2023-06-05T00:38:58;12.90;95.80
48264;DHT22;34086;51.076;13.722;2023-06-05T00:39:59;12.90;96.20
48264;DHT22;34086;51.076;13.722;2023-06-05T00:41:01;12.90;96.60
48264;DHT22;34086;51.076;13.722;2023-06-05T00:42:02;12.90;96.90
48264;DHT22;34086;51.076;13.722;2023-06-05T00:43:02;12.90;97.10
48264;DHT22;34086;51.076;13.722;2023-06-05T00:44:03;12.90;97.40
48264;DHT22;34086;51.076;13.722;2023-06-05T00:45:04;12.90;97.70
48264;DHT22;34086;51.076;13.722;2023-06-05T00:46:06;12.80;98.00
48264;DHT22;34086;51.076;13.722;2023-06-05T00:47:06;12.80;98.40
48264;DHT22;34086;51.076;13.722;2023-06-05T00:48:07;12.80;98.60
48264;DHT22;34086;51.076;13.722;2023-06-05T00:49:08;12.80;98.90
48264;DHT22;34086;51.076;13.722;2023-06-05T00:50:10;12.80;99.10
48264;DHT22;34086;51.076;13.722;2023-06-05T00:51:12;12.80;99.30
48264;DHT22;34086;51.076;13.722;2023-06-05T00:52:16;12.80;99.60
48264;DHT22;34086;51.076;13.722;2023-06-05T00:53:17;12.80;99.80
48264;DHT22;34086;51.076;13.722;2023-06-05T00:54:18;12.80;99.90
48264;DHT22;34086;51.076;13.722;2023-06-05T00:55:19;12.80;99.90
48264;DHT22;34086;51.076;13.722;2023-06-05T00:56:20;12.80;99.90
48264;DHT22;34086;51.076;13.722;2023-06-05T00:57:21;12.70;99.90
48264;DHT22;34086;51.076;13.722;2023-06-05T00:58:25;12.70;99.90
48264;DHT22;34086;51.076;13.722;2023-06-05T00:59:27;12.70;99.90
48264;DHT22;34086;51.076;13.722;2023-06-05T01:00:30;12.70;99.90
48264;DHT22;34086;51.076;13.722;2023-06-05T01:01:30;12.60;99.90
48264;DHT22;34086;51.076;13.722;2023-06-05T01:02:33;12.60;99.90
48264;DHT22;34086;51.076;13.722;2023-06-05T01:03:34;12.60;99.90
48264;DHT22;34086;51.076;13.722;2023-06-05T01:04:35;12.60;99.90
48264;DHT22;34086;51.076;13.722;2023-06-05T01:05:37;12.60;99.90
48264;DHT22;34086;51.076;13.722;2023-06-05T01:06:38;12.60;99.90
48264;DHT22;34086;51.076;13.722;2023-06-05T01:07:40;12.60;99.90
48264;DHT22;34086;51.076;13.722;2023-06-05T01:08:42;12.60;99.90
48264;DHT22;34086;51.076;13.722;2023-06-05T01:09:43;12.60;99.90
48264;DHT22;34086;51.076;13.722;2023-06-05T01:10:44;12.60;99.90
48264;DHT22;34086;51.076;13.722;2023-06-05T01:12:02;12.50;99.90
48264;DHT22;34086;51.076;13.722;2023-06-05T01:13:04;12.50;99.90
48264;DHT22;34086;51.076;13.722;2023-06-05T01:14:18;12.50;99.90
48264;DHT22;34086;51.076;13.722;2023-06-05T01:15:24;12.50;99.90
48264;DHT22;34086;51.076;13.722;2023-06-05T01:16:29;12.40;99.90
48264;DHT22;34086;51.076;13.722;2023-06-05T01:17:33;12.40;99.90
48264;DHT22;34086;51.076;13.722;2023-06-05T01:18:34;12.40;99.90
48264;DHT22;34086;51.076;13.722;2023-06-05T01:19:35;12.40;99.90
48264;DHT22;34086;51.076;13.722;2023-06-05T01:20:38;12.40;99.90
48264;DHT22;34086;51.076;13.722;2023-06-05T01:21:38;12.40;99.90
48264;DHT22;34086;51.076;13.722;2023-06-05T01:22:40;12.40;99.90
48264;DHT22;34086;51.076;13.722;2023-06-05T01:23:43;12.40;99.90
48264;DHT22;34086;51.076;13.722;2023-06-05T01:24:45;12.40;99.90
48264;DHT22;34086;51.076;13.722;2023-06-05T01:25:48;12.40;99.90
48264;DHT22;34086;51.076;13.722;2023-06-05T01:27:01;12.40;99.90
48264;DHT22;34086;51.076;13.722;2023-06-05T01:29:12;12.30;99.90
48264;DHT22;34086;51.076;13.722;2023-06-05T01:30:34;12.30;99.90
48264;DHT22;34086;51.076;13.722;2023-06-05T01:31:38;12.40;99.90
48264;DHT22;34086;51.076;13.722;2023-06-05T01:33:02;12.30;99.90
48264;DHT22;34086;51.076;13.722;2023-06-05T01:34:08;12.30;99.90
48264;DHT22;34086;51.076;13.722;2023-06-05T01:35:13;12.30;99.90
48264;DHT22;34086;51.076;13.722;2023-06-05T01:36:18;12.30;99.90
48264;DHT22;34086;51.076;13.722;2023-06-05T01:37:20;12.30;99.90
48264;DHT22;34086;51.076;13.722;2023-06-05T01:38:26;12.30;99.90
48264;DHT22;34086;51.076;13.722;2023-06-05T01:39:27;12.20;99.90
48264;DHT22;34086;51.076;13.722;2023-06-05T01:40:30;12.30;99.90
48264;DHT22;34086;51.076;13.722;2023-06-05T01:41:33;12.20;99.90
48264;DHT22;34086;51.076;13.722;2023-06-05T01:42:34;12.20;99.90
48264;DHT22;34086;51.076;13.722;2023-06-05T01:43:35;12.20;99.90
48264;DHT22;34086;51.076;13.722;2023-06-05T01:44:38;12.20;99.90
48264;DHT22;34086;51.076;13.722;2023-06-05T01:45:40;12.20;99.90
48264;DHT22;34086;51.076;13.722;2023-06-05T01:46:41;12.20;99.90
48264;DHT22;34086;51.076;13.722;2023-06-05T01:47:42;12.20;99.90
48264;DHT22;34086;51.076;13.722;2023-06-05T01:48:44;12.20;99.90
48264;DHT22;34086;51.076;13.722;2023-06-05T01:49:45;12.20;99.90
48264;DHT22;34086;51.076;13.722;2023-06-05T01:50:46;12.10;99.90
48264;DHT22;34086;51.076;13.722;2023-06-05T01:51:46;12.20;99.90
48264;DHT22;34086;51.076;13.722;2023-06-05T01:52:48;12.10;99.90
48264;DHT22;34086;51.076;13.722;2023-06-05T01:53:49;12.10;99.90
48264;DHT22;34086;51.076;13.722;2023-06-05T01:54:50;12.10;99.90
48264;DHT22;34086;51.076;13.722;2023-06-05T01:55:54;12.10;99.90
48264;DHT22;34086;51.076;13.722;2023-06-05T01:56:58;12.00;99.90
48264;DHT22;34086;51.076;13.722;2023-06-05T01:57:58;12.00;99.90
48264;DHT22;34086;51.076;13.722;2023-06-05T01:58:59;12.00;99.90
48264;DHT22;34086;51.076;13.722;2023-06-05T02:00:08;12.00;99.90
48264;DHT22;34086;51.076;13.722;2023-06-05T02:01:16;12.00;99.90
48264;DHT22;34086;51.076;13.722;2023-06-05T02:02:17;12.00;99.90
48264;DHT22;34086;51.076;13.722;2023-06-05T02:03:20;12.00;99.90
48264;DHT22;34086;51.076;13.722;2023-06-05T02:04:21;12.00;99.90
48264;DHT22;34086;51.076;13.722;2023-06-05T02:05:22;12.00;99.90
48264;DHT22;34086;51.076;13.722;2023-06-05T02:06:23;12.00;99.90
48264;DHT22;34086;51.076;13.722;2023-06-05T02:07:25;12.00;99.90
48264;DHT22;34086;51.076;13.722;2023-06-05T02:08:25;11.90;99.90
48264;DHT22;34086;51.076;13.722;2023-06-05T02:09:29;11.90;99.90
48264;DHT22;34086;51.076;13.722;2023-06-05T02:10:32;11.90;99.90
48264;DHT22;34086;51.076;13.722;2023-06-05T02:11:33;12.00;99.90
48264;DHT22;34086;51.076;13.722;2023-06-05T02:12:34;12.00;99.90
48264;DHT22;34086;51.076;13.722;2023-06-05T02:13:36;11.90;99.90
48264;DHT22;34086;51.076;13.722;2023-06-05T02:14:38;11.90;99.90
48264;DHT22;34086;51.076;13.722;2023-06-05T02:15:39;11.90;99.90
48264;DHT22;34086;51.076;13.722;2023-06-05T02:16:41;11.80;99.90
48264;DHT22;34086;51.076;13.722;2023-06-05T02:17:44;11.90;99.90
48264;DHT22;34086;51.076;13.722;2023-06-05T02:18:50;11.80;99.90
48264;DHT22;34086;51.076;13.722;2023-06-05T02:19:51;11.80;99.90
48264;DHT22;34086;51.076;13.722;2023-06-05T02:20:54;11.80;99.90
48264;DHT22;34086;51.076;13.722;2023-06-05T02:21:58;11.80;99.90
48264;DHT22;34086;51.076;13.722;2023-06-05T02:22:58;11.80;99.90
48264;DHT22;34086;51.076;13.722;2023-06-05T02:23:59;11.80;99.90
48264;DHT22;34086;51.076;13.722;2023-06-05T02:25:00;11.80;99.90
48264;DHT22;34086;51.076;13.722;2023-06-05T02:26:01;11.80;99.90
48264;DHT22;34086;51.076;13.722;2023-06-05T02:27:01;11.70;99.90
48264;DHT22;34086;51.076;13.722;2023-06-05T02:28:02;11.80;99.90
48264;DHT22;34086;51.076;13.722;2023-06-05T02:29:03;11.70;99.90
48264;DHT22;34086;51.076;13.722;2023-06-05T02:30:04;11.70;99.90
48264;DHT22;34086;51.076;13.722;2023-06-05T02:31:04;11.70;99.90
48264;DHT22;34086;51.076;13.722;2023-06-05T02:32:05;11.70;99.90
48264;DHT22;34086;51.076;13.722;2023-06-05T02:33:07;11.70;99.90
48264;DHT22;34086;51.076;13.722;2023-06-05T02:34:10;11.70;99.90
48264;DHT22;34086;51.076;13.722;2023-06-05T02:35:11;11.70;99.90
48264;DHT22;34086;51.076;13.722;2023-06-05T02:36:12;11.70;99.90
48264;DHT22;34086;51.076;13.722;2023-06-05T02:37:15;11.70;99.90
48264;DHT22;34086;51.076;13.722;2023-06-05T02:38:16;11.70;99.90
48264;DHT22;34086;51.076;13.722;2023-06-05T02:39:17;11.70;99.90
48264;DHT22;34086;51.076;13.722;2023-06-05T02:40:18;11.70;99.90
48264;DHT22;34086;51.076;13.722;2023-06-05T02:41:19;11.70;99.90
48264;DHT22;34086;51.076;13.722;2023-06-05T02:42:21;11.60;99.90
48264;DHT22;34086;51.076;13.722;2023-06-05T02:43:23;11.60;99.90
48264;DHT22;34086;51.076;13.722;2023-06-05T02:44:23;11.60;99.90
48264;DHT22;34086;51.076;13.722;2023-06-05T02:45:24;11.60;99.90
48264;DHT22;34086;51.076;13.722;2023-06-05T02:46:25;11.60;99.90
48264;DHT22;34086;51.076;13.722;2023-06-05T02:47:26;11.60;99.90
48264;DHT22;34086;51.076;13.722;2023-06-05T02:48:26;11.60;99.90
48264;DHT22;34086;51.076;13.722;2023-06-05T02:49:29;11.60;99.90
48264;DHT22;34086;51.076;13.722;2023-06-05T02:50:30;11.60;99.90
48264;DHT22;34086;51.076;13.722;2023-06-05T02:51:34;11.60;99.90
48264;DHT22;34086;51.076;13.722;2023-06-05T02:52:35;11.60;99.90
48264;DHT22;34086;51.076;13.722;2023-06-05T02:53:41;11.50;99.90
48264;DHT22;34086;51.076;13.722;2023-06-05T02:54:42;11.50;99.90
48264;DHT22;34086;51.076;13.722;2023-06-05T02:55:44;11.60;99.90
48264;DHT22;34086;51.076;13.722;2023-06-05T02:56:48;11.50;99.90
48264;DHT22;34086;51.076;13.722;2023-06-05T02:57:50;11.50;99.90
48264;DHT22;34086;51.076;13.722;2023-06-05T02:58:54;11.50;99.90
48264;DHT22;34086;51.076;13.722;2023-06-05T02:59:57;11.50;99.90
48264;DHT22;34086;51.076;13.722;2023-06-05T03:00:57;11.50;99.90
48264;DHT22;34086;51.076;13.722;2023-06-05T03:02:04;11.50;99.90
48264;DHT22;34086;51.076;13.722;2023-06-05T03:03:04;11.50;99.90
48264;DHT22;34086;51.076;13.722;2023-06-05T03:04:09;11.50;99.90
48264;DHT22;34086;51.076;13.722;2023-06-05T03:05:12;11.50;99.90
48264;DHT22;34086;51.076;13.722;2023-06-05T03:06:13;11.50;99.90
48264;DHT22;34086;51.076;13.722;2023-06-05T03:07:21;11.50;99.90
48264;DHT22;34086;51.076;13.722;2023-06-05T03:08:25;11.50;99.90
48264;DHT22;34086;51.076;13.722;2023-06-05T03:09:27;11.50;99.90
48264;DHT22;34086;51.076;13.722;2023-06-05T03:10:27;11.50;99.90
48264;DHT22;34086;51.076;13.722;2023-06-05T03:11:28;11.50;99.90
48264;DHT22;34086;51.076;13.722;2023-06-05T03:12:29;11.50;99.90
48264;DHT22;34086;51.076;13.722;2023-06-05T03:13:30;11.50;99.90
48264;DHT22;34086;51.076;13.722;2023-06-05T03:14:31;11.50;99.90
48264;DHT22;34086;51.076;13.722;2023-06-05T03:15:32;11.60;99.90
48264;DHT22;34086;51.076;13.722;2023-06-05T03:16:32;11.60;99.90
48264;DHT22;34086;51.076;13.722;2023-06-05T03:17:38;11.60;99.90
48264;DHT22;34086;51.076;13.722;2023-06-05T03:18:38;11.60;99.90
48264;DHT22;34086;51.076;13.722;2023-06-05T03:19:40;11.60;99.90
48264;DHT22;34086;51.076;13.722;2023-06-05T03:20:41;11.60;99.90
48264;DHT22;34086;51.076;13.722;2023-06-05T03:21:42;11.60;99.90
48264;DHT22;34086;51.076;13.722;2023-06-05T03:22:44;11.60;99.90
48264;DHT22;34086;51.076;13.722;2023-06-05T03:23:44;11.60;99.90
48264;DHT22;34086;51.076;13.722;2023-06-05T03:24:47;11.60;99.90
48264;DHT22;34086;51.076;13.722;2023-06-05T03:25:48;11.60;99.90
48264;DHT22;34086;51.076;13.722;2023-06-05T03:26:49;11.60;99.90
48264;DHT22;34086;51.076;13.722;2023-06-05T03:27:49;11.70;99.90
48264;DHT22;34086;51.076;13.722;2023-06-05T03:28:51;11.60;99.90
48264;DHT22;34086;51.076;13.722;2023-06-05T03:29:52;11.60;99.90
48264;DHT22;34086;51.076;13.722;2023-06-05T03:30:53;11.60;99.90
48264;DHT22;34086;51.076;13.722;2023-06-05T03:31:57;11.60;99.90
48264;DHT22;34086;51.076;13.722;2023-06-05T03:32:57;11.60;99.90
48264;DHT22;34086;51.076;13.722;2023-06-05T03:33:58;11.60;99.90
48264;DHT22;34086;51.076;13.722;2023-06-05T03:35:00;11.70;99.90
48264;DHT22;34086;51.076;13.722;2023-06-05T03:36:01;11.70;99.90
48264;DHT22;34086;51.076;13.722;2023-06-05T03:37:03;11.70;99.90
48264;DHT22;34086;51.076;13.722;2023-06-05T03:38:04;11.70;99.90
48264;DHT22;34086;51.076;13.722;2023-06-05T03:39:05;11.70;99.90
48264;DHT22;34086;51.076;13.722;2023-06-05T03:40:06;11.70;99.90
48264;DHT22;34086;51.076;13.722;2023-06-05T03:41:09;11.80;99.90
48264;DHT22;34086;51.076;13.722;2023-06-05T03:42:10;11.80;99.90
48264;DHT22;34086;51.076;13.722;2023-06-05T03:43:11;11.70;99.90
48264;DHT22;34086;51.076;13.722;2023-06-05T03:44:13;11.70;99.90
48264;DHT22;34086;51.076;13.722;2023-06-05T03:45:13;11.70;99.90
48264;DHT22;34086;51.076;13.722;2023-06-05T03:46:15;11.70;99.90
48264;DHT22;34086;51.076;13.722;2023-06-05T03:47:19;11.80;99.90
48264;DHT22;34086;51.076;13.722;2023-06-05T03:48:21;11.80;99.90
48264;DHT22;34086;51.076;13.722;2023-06-05T03:49:24;11.80;99.90
48264;DHT22;34086;51.076;13.722;2023-06-05T03:50:28;11.90;99.90
48264;DHT22;34086;51.076;13.722;2023-06-05T03:51:29;11.90;99.90
48264;DHT22;34086;51.076;13.722;2023-06-05T03:52:31;11.90;99.90
48264;DHT22;34086;51.076;13.722;2023-06-05T03:53:32;12.00;99.90
48264;DHT22;34086;51.076;13.722;2023-06-05T03:54:32;12.00;99.90
48264;DHT22;34086;51.076;13.722;2023-06-05T03:55:33;12.10;99.90
48264;DHT22;34086;51.076;13.722;2023-06-05T03:56:49;12.10;99.90
48264;DHT22;34086;51.076;13.722;2023-06-05T03:57:51;12.10;99.90
48264;DHT22;34086;51.076;13.722;2023-06-05T03:58:51;12.20;99.90
48264;DHT22;34086;51.076;13.722;2023-06-05T03:59:52;12.20;99.90
48264;DHT22;34086;51.076;13.722;2023-06-05T04:00:53;12.30;99.90
48264;DHT22;34086;51.076;13.722;2023-06-05T04:01:55;12.40;99.90
48264;DHT22;34086;51.076;13.722;2023-06-05T04:02:58;12.40;99.90
48264;DHT22;34086;51.076;13.722;2023-06-05T04:04:00;12.50;99.90
48264;DHT22;34086;51.076;13.722;2023-06-05T04:05:01;12.60;99.90
48264;DHT22;34086;51.076;13.722;2023-06-05T04:06:03;12.70;99.90
48264;DHT22;34086;51.076;13.722;2023-06-05T04:07:05;13.00;99.90
48264;DHT22;34086;51.076;13.722;2023-06-05T04:08:07;13.30;99.90
48264;DHT22;34086;51.076;13.722;2023-06-05T04:09:08;13.60;99.90
48264;DHT22;34086;51.076;13.722;2023-06-05T04:10:12;13.90;99.90
48264;DHT22;34086;51.076;13.722;2023-06-05T04:11:12;14.20;99.90
48264;DHT22;34086;51.076;13.722;2023-06-05T04:12:14;14.30;99.90
48264;DHT22;34086;51.076;13.722;2023-06-05T04:13:15;14.50;99.90
48264;DHT22;34086;51.076;13.722;2023-06-05T04:14:15;14.70;99.90
48264;DHT22;34086;51.076;13.722;2023-06-05T04:15:16;15.00;99.90
48264;DHT22;34086;51.076;13.722;2023-06-05T04:16:17;15.30;99.90
48264;DHT22;34086;51.076;13.722;2023-06-05T04:17:17;15.70;99.40
48264;DHT22;34086;51.076;13.722;2023-06-05T04:18:18;15.90;98.20
48264;DHT22;34086;51.076;13.722;2023-06-05T04:19:21;16.20;96.80
48264;DHT22;34086;51.076;13.722;2023-06-05T04:20:24;16.40;95.40
48264;DHT22;34086;51.076;13.722;2023-06-05T04:21:25;16.50;94.00
48264;DHT22;34086;51.076;13.722;2023-06-05T04:22:26;16.50;93.50
48264;DHT22;34086;51.076;13.722;2023-06-05T04:23:26;16.60;93.10
48264;DHT22;34086;51.076;13.722;2023-06-05T04:24:27;16.60;92.60
48264;DHT22;34086;51.076;13.722;2023-06-05T04:25:29;16.70;92.30
48264;DHT22;34086;51.076;13.722;2023-06-05T04:26:30;16.90;91.80
48264;DHT22;34086;51.076;13.722;2023-06-05T04:27:31;17.10;91.00
48264;DHT22;34086;51.076;13.722;2023-06-05T04:28:31;17.40;89.70
48264;DHT22;34086;51.076;13.722;2023-06-05T04:29:32;17.50;88.00
48264;DHT22;34086;51.076;13.722;2023-06-05T04:30:33;17.70;86.90
48264;DHT22;34086;51.076;13.722;2023-06-05T04:31:34;17.80;85.00
48264;DHT22;34086;51.076;13.722;2023-06-05T04:32:36;18.00;84.00
48264;DHT22;34086;51.076;13.722;2023-06-05T04:33:39;18.20;82.60
48264;DHT22;34086;51.076;13.722;2023-06-05T04:34:39;18.30;81.20
48264;DHT22;34086;51.076;13.722;2023-06-05T04:35:40;18.40;80.00
48264;DHT22;34086;51.076;13.722;2023-06-05T04:36:41;18.40;79.40
48264;DHT22;34086;51.076;13.722;2023-06-05T04:37:43;18.30;78.90
48264;DHT22;34086;51.076;13.722;2023-06-05T04:38:44;18.00;78.90
48264;DHT22;34086;51.076;13.722;2023-06-05T04:39:46;17.90;79.60
48264;DHT22;34086;51.076;13.722;2023-06-05T04:40:48;17.60;80.20
48264;DHT22;34086;51.076;13.722;2023-06-05T04:41:49;17.40;80.60
48264;DHT22;34086;51.076;13.722;2023-06-05T04:42:56;17.20;81.30
48264;DHT22;34086;51.076;13.722;2023-06-05T04:43:59;17.00;82.40
48264;DHT22;34086;51.076;13.722;2023-06-05T04:45:06;17.10;83.10
48264;DHT22;34086;51.076;13.722;2023-06-05T04:46:11;17.30;82.80
48264;DHT22;34086;51.076;13.722;2023-06-05T04:47:12;17.60;82.70
48264;DHT22;34086;51.076;13.722;2023-06-05T04:48:13;17.80;80.80
48264;DHT22;34086;51.076;13.722;2023-06-05T04:49:14;18.10;79.80
48264;DHT22;34086;51.076;13.722;2023-06-05T04:50:26;18.20;77.90
48264;DHT22;34086;51.076;13.722;2023-06-05T04:51:31;18.20;77.30
48264;DHT22;34086;51.076;13.722;2023-06-05T04:52:32;18.30;76.70
48264;DHT22;34086;51.076;13.722;2023-06-05T04:53:36;18.40;76.40
48264;DHT22;34086;51.076;13.722;2023-06-05T04:54:37;18.30;76.30
48264;DHT22;34086;51.076;13.722;2023-06-05T04:55:38;18.20;76.70
48264;DHT22;34086;51.076;13.722;2023-06-05T04:56:39;18.20;77.10
48264;DHT22;34086;51.076;13.722;2023-06-05T04:57:40;18.00;76.80
48264;DHT22;34086;51.076;13.722;2023-06-05T04:58:41;17.70;77.80
48264;DHT22;34086;51.076;13.722;2023-06-05T04:59:45;17.40;79.10
48264;DHT22;34086;51.076;13.722;2023-06-05T05:00:48;17.10;79.50
48264;DHT22;34086;51.076;13.722;2023-06-05T05:01:50;16.80;80.70
48264;DHT22;34086;51.076;13.722;2023-06-05T05:02:51;16.60;81.60
48264;DHT22;34086;51.076;13.722;2023-06-05T05:03:52;16.40;83.00
48264;DHT22;34086;51.076;13.722;2023-06-05T05:04:53;16.20;84.30
48264;DHT22;34086;51.076;13.722;2023-06-05T05:05:54;16.10;85.40
48264;DHT22;34086;51.076;13.722;2023-06-05T05:06:56;15.80;86.40
48264;DHT22;34086;51.076;13.722;2023-06-05T05:08:01;15.70;87.60
48264;DHT22;34086;51.076;13.722;2023-06-05T05:09:04;15.50;87.50
48264;DHT22;34086;51.076;13.722;2023-06-05T05:10:06;15.50;88.20
48264;DHT22;34086;51.076;13.722;2023-06-05T05:11:07;15.50;88.50
48264;DHT22;34086;51.076;13.722;2023-06-05T05:12:08;15.50;88.20
48264;DHT22;34086;51.076;13.722;2023-06-05T05:13:10;15.40;88.10
48264;DHT22;34086;51.076;13.722;2023-06-05T05:14:10;15.30;88.70
48264;DHT22;34086;51.076;13.722;2023-06-05T05:15:11;15.30;89.80
48264;DHT22;34086;51.076;13.722;2023-06-05T05:16:12;15.30;90.10
48264;DHT22;34086;51.076;13.722;2023-06-05T05:17:14;15.30;89.70
48264;DHT22;34086;51.076;13.722;2023-06-05T05:18:17;15.40;90.10
48264;DHT22;34086;51.076;13.722;2023-06-05T05:19:18;15.40;88.60
48264;DHT22;34086;51.076;13.722;2023-06-05T05:20:19;15.40;88.50
48264;DHT22;34086;51.076;13.722;2023-06-05T05:21:19;15.30;88.80
48264;DHT22;34086;51.076;13.722;2023-06-05T05:22:20;15.30;89.30
48264;DHT22;34086;51.076;13.722;2023-06-05T05:23:20;15.50;89.50
48264;DHT22;34086;51.076;13.722;2023-06-05T05:24:21;15.70;89.40
48264;DHT22;34086;51.076;13.722;2023-06-05T05:25:23;15.90;88.50
48264;DHT22;34086;51.076;13.722;2023-06-05T05:26:25;16.10;87.30
48264;DHT22;34086;51.076;13.722;2023-06-05T05:27:27;16.30;86.80
48264;DHT22;34086;51.076;13.722;2023-06-05T05:28:29;16.30;85.90
48264;DHT22;34086;51.076;13.722;2023-06-05T05:29:30;16.40;85.60
48264;DHT22;34086;51.076;13.722;2023-06-05T05:30:34;16.60;85.10
48264;DHT22;34086;51.076;13.722;2023-06-05T05:31:35;16.70;84.60
48264;DHT22;34086;51.076;13.722;2023-06-05T05:32:35;16.90;84.00
48264;DHT22;34086;51.076;13.722;2023-06-05T05:33:36;17.00;83.50
48264;DHT22;34086;51.076;13.722;2023-06-05T05:34:37;17.10;83.40
48264;DHT22;34086;51.076;13.722;2023-06-05T05:35:38;17.20;82.80
48264;DHT22;34086;51.076;13.722;2023-06-05T05:36:39;17.40;82.30
48264;DHT22;34086;51.076;13.722;2023-06-05T05:37:39;17.60;81.80
48264;DHT22;34086;51.076;13.722;2023-06-05T05:38:40;17.90;81.10
48264;DHT22;34086;51.076;13.722;2023-06-05T05:39:41;18.20;79.80
48264;DHT22;34086;51.076;13.722;2023-06-05T05:40:41;18.50;78.60
48264;DHT22;34086;51.076;13.722;2023-06-05T05:41:42;18.80;77.60
48264;DHT22;34086;51.076;13.722;2023-06-05T05:42:42;19.00;76.30
48264;DHT22;34086;51.076;13.722;2023-06-05T05:43:43;19.30;75.80
48264;DHT22;34086;51.076;13.722;2023-06-05T05:44:43;19.60;74.20
48264;DHT22;34086;51.076;13.722;2023-06-05T05:45:44;19.60;72.90
48264;DHT22;34086;51.076;13.722;2023-06-05T05:46:46;19.70;72.20
48264;DHT22;34086;51.076;13.722;2023-06-05T05:47:47;19.90;72.10
48264;DHT22;34086;51.076;13.722;2023-06-05T05:48:47;20.10;71.00
48264;DHT22;34086;51.076;13.722;2023-06-05T05:49:48;20.10;70.20
48264;DHT22;34086;51.076;13.722;2023-06-05T05:50:49;20.10;69.00
48264;DHT22;34086;51.076;13.722;2023-06-05T05:51:51;20.20;69.10
48264;DHT22;34086;51.076;13.722;2023-06-05T05:52:51;20.30;68.60
48264;DHT22;34086;51.076;13.722;2023-06-05T05:53:53;20.50;68.10
48264;DHT22;34086;51.076;13.722;2023-06-05T05:54:54;20.60;67.50
48264;DHT22;34086;51.076;13.722;2023-06-05T05:55:55;20.70;67.20
48264;DHT22;34086;51.076;13.722;2023-06-05T05:56:55;20.70;66.60
48264;DHT22;34086;51.076;13.722;2023-06-05T05:57:56;20.60;66.00
48264;DHT22;34086;51.076;13.722;2023-06-05T05:58:57;20.50;66.30
48264;DHT22;34086;51.076;13.722;2023-06-05T05:59:57;20.30;66.00
48264;DHT22;34086;51.076;13.722;2023-06-05T06:00:58;20.00;67.00
48264;DHT22;34086;51.076;13.722;2023-06-05T06:02:02;19.70;67.90
48264;DHT22;34086;51.076;13.722;2023-06-05T06:03:08;19.40;69.10
48264;DHT22;34086;51.076;13.722;2023-06-05T06:04:09;19.40;69.70
48264;DHT22;34086;51.076;13.722;2023-06-05T06:05:10;19.40;69.90
48264;DHT22;34086;51.076;13.722;2023-06-05T06:06:12;19.50;69.40
48264;DHT22;34086;51.076;13.722;2023-06-05T06:07:13;19.50;69.30
48264;DHT22;34086;51.076;13.722;2023-06-05T06:08:14;19.50;69.20
48264;DHT22;34086;51.076;13.722;2023-06-05T06:09:15;19.50;68.70
48264;DHT22;34086;51.076;13.722;2023-06-05T06:10:17;19.50;68.80
48264;DHT22;34086;51.076;13.722;2023-06-05T06:11:17;19.40;68.70
48264;DHT22;34086;51.076;13.722;2023-06-05T06:12:19;19.40;68.70
48264;DHT22;34086;51.076;13.722;2023-06-05T06:13:19;19.30;68.80
48264;DHT22;34086;51.076;13.722;2023-06-05T06:14:20;19.30;69.40
48264;DHT22;34086;51.076;13.722;2023-06-05T06:15:20;19.20;69.70
48264;DHT22;34086;51.076;13.722;2023-06-05T06:16:21;19.10;70.00
48264;DHT22;34086;51.076;13.722;2023-06-05T06:17:22;19.10;70.10
48264;DHT22;34086;51.076;13.722;2023-06-05T06:18:22;19.00;70.80
48264;DHT22;34086;51.076;13.722;2023-06-05T06:19:23;19.00;70.80
48264;DHT22;34086;51.076;13.722;2023-06-05T06:20:25;19.10;70.70
48264;DHT22;34086;51.076;13.722;2023-06-05T06:21:25;19.20;70.50
48264;DHT22;34086;51.076;13.722;2023-06-05T06:22:26;19.10;70.60
48264;DHT22;34086;51.076;13.722;2023-06-05T06:23:27;19.20;70.60
48264;DHT22;34086;51.076;13.722;2023-06-05T06:24:28;19.10;70.70
48264;DHT22;34086;51.076;13.722;2023-06-05T06:25:28;18.90;71.20